Time;durP1;ratioP1;P1;durP2;ratioP2;P2;SDS_P1;SDS_P2;PMS_P1;PMS_P2;Temp;Humidity;BMP_temperature;BMP_pressure;BME280_temperature;BME280_humidity;BME280_pressure;Samples;Min_cycle;Max_cycle;Signal;HPM_P1;HPM_P2
2022/03/01 00:01:24;;;;;;;;;49.50;40.50;;;;;;;;5074192;28;51001;-60
2022/03/01 00:03:49;;;;;;;;;46.50;40.50;;;;;;;;5074299;27;51164;-61
2022/03/01 00:06:14;;;;;;;;;40.25;36.75;;;;;;;;5074464;28;50899;-61
2022/03/01 00:08:39;;;;;;;;;48.75;40.00;;;;;;;;5073483;27;51739;-62
2022/03/01 00:11:05;;;;;;;;;34.50;31.25;;;;;;;;5073921;28;51088;-60
2022/03/01 00:13:30;;;;;;;;;37.75;35.25;;;;;;;;5073929;28;50909;-61
2022/03/01 00:15:55;;;;;;;;;38.75;36.25;;;;;;;;5074550;28;50953;-60
2022/03/01 00:18:20;;;;;;;;;44.75;39.00;;;;;;;;5073725;28;52188;-60
2022/03/01 00:20:45;;;;;;;;;35.00;35.00;;;;;;;;5074047;28;51015;-60
2022/03/01 00:23:11;;;;;;;;;37.50;36.25;;;;;;;;5074249;28;50867;-60
2022/03/01 00:25:37;;;;;;;;;21.00;18.75;;;;;;;;5074225;28;50830;-60
2022/03/01 00:28:02;;;;;;;;;40.25;36.50;;;;;;;;5074095;28;52304;-61
2022/03/01 00:30:27;;;;;;;;;33.75;31.25;;;;;;;;5072148;28;51001;-60
2022/03/01 00:32:53;;;;;;;;;35.75;34.00;;;;;;;;5074417;28;51123;-60
2022/03/01 00:35:18;;;;;;;;;41.00;37.50;;;;;;;;5072829;28;50895;-61
2022/03/01 00:37:43;;;;;;;;;41.25;38.00;;;;;;;;5073469;28;52807;-61
2022/03/01 00:40:09;;;;;;;;;39.00;36.50;;;;;;;;5073612;28;50985;-60
2022/03/01 00:42:34;;;;;;;;;41.75;37.00;;;;;;;;5074147;28;51335;-61
2022/03/01 00:44:59;;;;;;;;;42.00;37.25;;;;;;;;5072006;28;51077;-61
2022/03/01 00:47:24;;;;;;;;;48.50;41.75;;;;;;;;5073973;28;52144;-60
2022/03/01 00:49:50;;;;;;;;;44.00;38.25;;;;;;;;5074263;28;51205;-61
2022/03/01 00:52:15;;;;;;;;;46.00;40.50;;;;;;;;5074613;27;51235;-60
2022/03/01 00:54:40;;;;;;;;;51.50;41.25;;;;;;;;5074250;28;51045;-61
2022/03/01 00:57:05;;;;;;;;;46.50;39.00;;;;;;;;5073688;28;51082;-60
2022/03/01 00:59:31;;;;;;;;;46.25;39.75;;;;;;;;5073612;28;51154;-60
2022/03/01 01:01:56;;;;;;;;;44.50;39.00;;;;;;;;5074229;28;50866;-60
2022/03/01 01:04:21;;;;;;;;;39.00;37.00;;;;;;;;5074227;28;51110;-60
2022/03/01 01:06:46;;;;;;;;;43.00;37.00;;;;;;;;5073915;28;51770;-60
2022/03/01 01:09:13;;;;;;;;;41.25;37.50;;;;;;;;5073687;27;51263;-60
2022/03/01 01:11:39;;;;;;;;;40.25;37.00;;;;;;;;5074188;28;50894;-60
2022/03/01 01:14:04;;;;;;;;;43.50;39.00;;;;;;;;5072552;28;50920;-60
2022/03/01 01:16:29;;;;;;;;;44.75;39.75;;;;;;;;5073715;28;51042;-60
2022/03/01 01:18:55;;;;;;;;;45.75;39.00;;;;;;;;5073692;28;51005;-60
2022/03/01 01:21:21;;;;;;;;;42.50;39.00;;;;;;;;5073826;28;50831;-60
2022/03/01 01:23:46;;;;;;;;;37.25;33.00;;;;;;;;5073860;28;51121;-60
2022/03/01 01:26:11;;;;;;;;;43.25;38.50;;;;;;;;5073536;28;50890;-60
2022/03/01 01:28:37;;;;;;;;;38.25;36.50;;;;;;;;5073290;28;50902;-60
2022/03/01 01:31:02;;;;;;;;;38.50;36.00;;;;;;;;5073818;28;50927;-60
2022/03/01 01:33:27;;;;;;;;;39.75;35.50;;;;;;;;5073890;28;51264;-60
2022/03/01 01:35:52;;;;;;;;;43.75;38.75;;;;;;;;5073581;28;52225;-61
2022/03/01 01:38:18;;;;;;;;;43.00;39.50;;;;;;;;5073587;28;51029;-60
2022/03/01 01:40:43;;;;;;;;;43.25;39.00;;;;;;;;5074065;28;51095;-60
2022/03/01 01:43:08;;;;;;;;;44.25;39.50;;;;;;;;5073636;28;51202;-59
2022/03/01 01:45:33;;;;;;;;;40.00;37.00;;;;;;;;5073060;28;52137;-60
2022/03/01 01:48:00;;;;;;;;;40.25;37.00;;;;;;;;5073610;28;50986;-59
2022/03/01 01:50:25;;;;;;;;;45.00;39.75;;;;;;;;5073152;28;51138;-59
2022/03/01 01:52:51;;;;;;;;;41.75;39.25;;;;;;;;5073463;28;50926;-59
2022/03/01 01:55:17;;;;;;;;;44.75;39.25;;;;;;;;5073162;28;51119;-59
2022/03/01 01:57:43;;;;;;;;;37.75;36.25;;;;;;;;5073138;28;51115;-59
2022/03/01 02:00:10;;;;;;;;;50.00;39.25;;;;;;;;5071624;28;50940;-61
2022/03/01 02:02:35;;;;;;;;;45.75;40.00;;;;;;;;5073358;28;50890;-60
2022/03/01 02:05:02;;;;;;;;;46.00;39.50;;;;;;;;5073322;28;52110;-60
2022/03/01 02:07:27;;;;;;;;;48.75;39.50;;;;;;;;5072807;27;51189;-59
2022/03/01 02:09:52;;;;;;;;;33.00;33.00;;;;;;;;5071879;28;51254;-60
2022/03/01 02:12:19;;;;;;;;;47.75;41.00;;;;;;;;5073361;28;50881;-59
2022/03/01 02:14:44;;;;;;;;;44.00;40.00;;;;;;;;5072791;28;51040;-59
2022/03/01 02:17:10;;;;;;;;;47.75;42.00;;;;;;;;5073016;28;51027;-59
2022/03/01 02:19:36;;;;;;;;;45.50;39.00;;;;;;;;5073184;28;51024;-59
2022/03/01 02:22:01;;;;;;;;;44.50;39.50;;;;;;;;5073071;28;50918;-59
2022/03/01 02:24:27;;;;;;;;;48.75;41.25;;;;;;;;5072847;28;51100;-59
2022/03/01 02:26:57;;;;;;;;;45.75;39.75;;;;;;;;5073110;28;51024;-59
2022/03/01 02:29:22;;;;;;;;;45.75;38.00;;;;;;;;5072727;28;50787;-59
2022/03/01 02:31:48;;;;;;;;;45.50;39.75;;;;;;;;5073077;28;51266;-59
2022/03/01 02:34:13;;;;;;;;;45.50;40.50;;;;;;;;5072746;28;50988;-59
2022/03/01 02:36:38;;;;;;;;;43.00;39.50;;;;;;;;5072755;28;51044;-58
2022/03/01 02:39:04;;;;;;;;;50.00;41.00;;;;;;;;5072751;28;51130;-58
2022/03/01 02:41:29;;;;;;;;;42.75;38.50;;;;;;;;5072867;28;50961;-59
2022/03/01 02:43:54;;;;;;;;;46.25;39.25;;;;;;;;5072460;28;51281;-59
2022/03/01 02:46:19;;;;;;;;;47.50;41.50;;;;;;;;5072446;28;51210;-60
2022/03/01 02:48:45;;;;;;;;;46.00;40.50;;;;;;;;5072976;28;51522;-59
2022/03/01 02:51:10;;;;;;;;;45.50;40.75;;;;;;;;5072987;28;50897;-60
2022/03/01 02:53:36;;;;;;;;;47.75;41.50;;;;;;;;5072715;28;51829;-61
2022/03/01 02:56:02;;;;;;;;;43.75;39.25;;;;;;;;5072320;28;51676;-59
2022/03/01 02:58:27;;;;;;;;;48.25;41.00;;;;;;;;5072556;28;50982;-59
2022/03/01 03:00:52;;;;;;;;;48.50;42.50;;;;;;;;5072842;28;50988;-59
2022/03/01 03:03:17;;;;;;;;;50.50;40.75;;;;;;;;5075030;27;51101;-59
2022/03/01 03:05:43;;;;;;;;;43.25;40.00;;;;;;;;5075895;28;51063;-59
2022/03/01 03:08:08;;;;;;;;;49.50;41.50;;;;;;;;5075952;27;51143;-59
2022/03/01 03:10:33;;;;;;;;;49.75;40.75;;;;;;;;5076032;28;50857;-59
2022/03/01 03:12:59;;;;;;;;;46.00;40.00;;;;;;;;5075961;27;51328;-59
2022/03/01 03:15:25;;;;;;;;;45.75;40.00;;;;;;;;5075644;27;51169;-59
2022/03/01 03:17:50;;;;;;;;;47.00;37.75;;;;;;;;5075890;28;50964;-59
2022/03/01 03:20:15;;;;;;;;;50.50;42.75;;;;;;;;5075902;28;51402;-59
2022/03/01 03:22:41;;;;;;;;;54.00;44.25;;;;;;;;5073604;28;52049;-59
2022/03/01 03:25:07;;;;;;;;;49.50;40.00;;;;;;;;5075722;28;50884;-59
2022/03/01 03:27:32;;;;;;;;;56.25;44.00;;;;;;;;5076002;28;50949;-59
2022/03/01 03:29:57;;;;;;;;;50.25;43.50;;;;;;;;5075661;28;50843;-59
2022/03/01 03:32:22;;;;;;;;;49.75;42.50;;;;;;;;5073651;28;53514;-59
2022/03/01 03:34:47;;;;;;;;;48.00;42.00;;;;;;;;5075795;28;50895;-59
2022/03/01 03:37:13;;;;;;;;;54.00;44.25;;;;;;;;5075750;28;51037;-59
2022/03/01 03:39:38;;;;;;;;;57.00;47.25;;;;;;;;5075833;28;51006;-59
2022/03/01 03:42:04;;;;;;;;;45.75;41.50;;;;;;;;5075286;28;51703;-60
2022/03/01 03:44:29;;;;;;;;;54.50;44.25;;;;;;;;5075114;28;51049;-59
2022/03/01 03:46:54;;;;;;;;;43.00;39.75;;;;;;;;5075601;28;51004;-59
2022/03/01 03:49:20;;;;;;;;;44.00;40.00;;;;;;;;5075595;28;51010;-59
2022/03/01 03:51:45;;;;;;;;;53.50;44.25;;;;;;;;5075275;27;51004;-59
2022/03/01 03:54:10;;;;;;;;;51.25;44.00;;;;;;;;5075076;28;51102;-59
2022/03/01 03:56:36;;;;;;;;;48.25;42.25;;;;;;;;5075412;28;50989;-59
2022/03/01 03:59:01;;;;;;;;;48.75;41.00;;;;;;;;5075368;28;51103;-59
2022/03/01 04:01:26;;;;;;;;;50.00;42.75;;;;;;;;5075185;27;52411;-59
2022/03/01 04:03:51;;;;;;;;;45.50;40.50;;;;;;;;5075255;27;51037;-59
2022/03/01 04:06:17;;;;;;;;;40.50;38.75;;;;;;;;5075499;27;51163;-60
2022/03/01 04:08:42;;;;;;;;;49.00;41.25;;;;;;;;5075055;27;51156;-60
2022/03/01 04:11:07;;;;;;;;;53.25;44.50;;;;;;;;5074952;27;51032;-60
2022/03/01 04:13:32;;;;;;;;;46.75;40.00;;;;;;;;5074003;28;51143;-60
2022/03/01 04:15:58;;;;;;;;;47.50;40.00;;;;;;;;5073955;28;50964;-59
2022/03/01 04:18:23;;;;;;;;;47.75;42.00;;;;;;;;5075462;28;50941;-60
2022/03/01 04:20:48;;;;;;;;;34.25;31.00;;;;;;;;5074548;28;51073;-60
2022/03/01 04:23:14;;;;;;;;;42.50;39.25;;;;;;;;5075089;28;50999;-60
2022/03/01 04:25:39;;;;;;;;;49.75;41.50;;;;;;;;5075057;28;51323;-59
2022/03/01 04:28:04;;;;;;;;;37.25;36.25;;;;;;;;5075172;28;51025;-60
2022/03/01 04:30:29;;;;;;;;;49.25;42.00;;;;;;;;5074393;28;50912;-60
2022/03/01 04:32:55;;;;;;;;;49.50;43.75;;;;;;;;5074867;27;50983;-60
2022/03/01 04:35:20;;;;;;;;;51.75;42.00;;;;;;;;5073626;28;51024;-60
2022/03/01 04:37:45;;;;;;;;;47.25;41.75;;;;;;;;5074801;27;51142;-59
2022/03/01 04:40:12;;;;;;;;;46.50;40.25;;;;;;;;5072827;28;52743;-61
2022/03/01 04:42:38;;;;;;;;;46.00;38.75;;;;;;;;5074444;27;51021;-59
2022/03/01 04:45:05;;;;;;;;;48.00;42.75;;;;;;;;5073953;28;50981;-60
2022/03/01 04:47:30;;;;;;;;;51.50;43.00;;;;;;;;5074769;27;51256;-59
2022/03/01 04:49:55;;;;;;;;;53.50;45.50;;;;;;;;5074184;27;51081;-59
2022/03/01 04:52:21;;;;;;;;;41.25;38.50;;;;;;;;5074259;28;51090;-59
2022/03/01 04:54:46;;;;;;;;;54.25;46.00;;;;;;;;5074282;28;51093;-59
2022/03/01 04:57:11;;;;;;;;;57.75;44.75;;;;;;;;5074461;27;51010;-59
2022/03/01 04:59:36;;;;;;;;;55.00;43.50;;;;;;;;5073541;28;52093;-59
2022/03/01 05:02:02;;;;;;;;;52.00;44.75;;;;;;;;5073996;28;51036;-60
2022/03/01 05:04:27;;;;;;;;;46.00;40.00;;;;;;;;5074059;28;51059;-59
2022/03/01 05:06:53;;;;;;;;;52.50;44.00;;;;;;;;5072743;27;51008;-60
2022/03/01 05:09:20;;;;;;;;;49.00;42.25;;;;;;;;5073576;28;51053;-60
2022/03/01 05:11:46;;;;;;;;;53.25;42.50;;;;;;;;5074051;28;51063;-59
2022/03/01 05:14:11;;;;;;;;;44.50;39.75;;;;;;;;5073751;28;50892;-59
2022/03/01 05:16:37;;;;;;;;;55.75;44.75;;;;;;;;5074269;28;51149;-59
2022/03/01 05:19:02;;;;;;;;;41.50;36.00;;;;;;;;5073649;28;52234;-60
2022/03/01 05:21:28;;;;;;;;;47.00;40.75;;;;;;;;5073718;28;50980;-60
2022/03/01 05:23:54;;;;;;;;;48.75;41.00;;;;;;;;5072282;28;51185;-60
2022/03/01 05:26:19;;;;;;;;;50.75;41.75;;;;;;;;5071367;28;51041;-60
2022/03/01 05:28:44;;;;;;;;;40.75;37.75;;;;;;;;5073308;28;51897;-59
2022/03/01 05:31:10;;;;;;;;;43.75;39.25;;;;;;;;5073788;28;51068;-60
2022/03/01 05:33:35;;;;;;;;;47.00;40.00;;;;;;;;5073720;28;50975;-60
2022/03/01 05:36:01;;;;;;;;;51.75;44.00;;;;;;;;5074102;28;51049;-59
2022/03/01 05:38:26;;;;;;;;;44.00;40.75;;;;;;;;5073294;28;51816;-60
2022/03/01 05:40:51;;;;;;;;;55.50;45.00;;;;;;;;5073352;28;50995;-59
2022/03/01 05:43:17;;;;;;;;;46.75;40.50;;;;;;;;5073156;28;51157;-60
2022/03/01 05:45:42;;;;;;;;;58.25;48.00;;;;;;;;5073856;28;51110;-60
2022/03/01 05:48:07;;;;;;;;;51.75;43.50;;;;;;;;5071540;28;52035;-60
2022/03/01 05:50:32;;;;;;;;;42.00;39.75;;;;;;;;5073455;28;51102;-60
2022/03/01 05:52:58;;;;;;;;;26.75;26.25;;;;;;;;5073468;28;50938;-59
2022/03/01 05:55:23;;;;;;;;;47.25;42.00;;;;;;;;5073810;28;51206;-60
2022/03/01 05:57:49;;;;;;;;;44.75;37.00;;;;;;;;5072962;28;51008;-59
2022/03/01 06:00:15;;;;;;;;;51.50;41.50;;;;;;;;5073091;28;50874;-59
2022/03/01 06:02:41;;;;;;;;;48.25;41.75;;;;;;;;5073258;28;51056;-59
2022/03/01 06:05:07;;;;;;;;;48.50;41.00;;;;;;;;5073493;28;51286;-60
2022/03/01 06:07:32;;;;;;;;;44.75;38.50;;;;;;;;5071254;27;52062;-60
2022/03/01 06:09:57;;;;;;;;;55.25;44.50;;;;;;;;5073358;28;50884;-60
2022/03/01 06:12:22;;;;;;;;;49.00;40.25;;;;;;;;5073164;28;51107;-59
2022/03/01 06:14:47;;;;;;;;;47.50;40.25;;;;;;;;5073204;28;51076;-59
2022/03/01 06:17:13;;;;;;;;;53.75;42.75;;;;;;;;5072634;28;51082;-59
2022/03/01 06:19:38;;;;;;;;;52.50;43.00;;;;;;;;5072982;28;50905;-60
2022/03/01 06:22:04;;;;;;;;;51.00;44.00;;;;;;;;5072920;28;50965;-59
2022/03/01 06:24:30;;;;;;;;;50.00;41.25;;;;;;;;5073092;28;50961;-59
2022/03/01 06:26:55;;;;;;;;;50.50;42.25;;;;;;;;5071115;28;52875;-59
2022/03/01 06:29:20;;;;;;;;;40.75;38.25;;;;;;;;5072381;28;51105;-60
2022/03/01 06:31:45;;;;;;;;;48.75;39.50;;;;;;;;5072941;28;51024;-62
2022/03/01 06:34:11;;;;;;;;;55.75;42.50;;;;;;;;5071718;28;51485;-59
2022/03/01 06:36:36;;;;;;;;;53.25;44.75;;;;;;;;5072625;28;51137;-60
2022/03/01 06:39:01;;;;;;;;;46.50;39.00;;;;;;;;5074815;28;50969;-60
2022/03/01 06:41:26;;;;;;;;;44.75;40.75;;;;;;;;5076291;28;51537;-60
2022/03/01 06:43:52;;;;;;;;;54.75;43.25;;;;;;;;5076237;28;51361;-59
2022/03/01 06:46:17;;;;;;;;;50.00;43.75;;;;;;;;5076103;28;52249;-60
2022/03/01 06:48:42;;;;;;;;;41.50;39.50;;;;;;;;5074967;28;51004;-59
2022/03/01 06:51:08;;;;;;;;;47.75;42.00;;;;;;;;5076122;28;50972;-59
2022/03/01 06:53:36;;;;;;;;;46.25;40.50;;;;;;;;5076315;28;51354;-59
2022/03/01 06:56:02;;;;;;;;;51.25;43.00;;;;;;;;5074309;28;53351;-59
2022/03/01 06:58:28;;;;;;;;;43.50;39.25;;;;;;;;5075459;28;50859;-60
2022/03/01 07:00:53;;;;;;;;;43.00;36.50;;;;;;;;5075632;28;50886;-60
2022/03/01 07:03:18;;;;;;;;;43.25;38.00;;;;;;;;5075967;28;51066;-59
2022/03/01 07:05:44;;;;;;;;;47.75;38.25;;;;;;;;5075391;28;51105;-60
2022/03/01 07:08:09;;;;;;;;;42.00;39.25;;;;;;;;5075482;27;51218;-59
2022/03/01 07:10:35;;;;;;;;;43.75;39.25;;;;;;;;5075734;28;50972;-60
2022/03/01 07:13:01;;;;;;;;;41.50;37.00;;;;;;;;5075726;28;51016;-60
2022/03/01 07:15:26;;;;;;;;;42.50;38.50;;;;;;;;5074954;28;51037;-59
2022/03/01 07:17:51;;;;;;;;;45.00;38.50;;;;;;;;5075416;28;50962;-60
2022/03/01 07:20:16;;;;;;;;;45.25;39.50;;;;;;;;5073930;28;51464;-59
2022/03/01 07:22:42;;;;;;;;;40.25;37.25;;;;;;;;5075672;28;51087;-59
2022/03/01 07:25:07;;;;;;;;;40.75;37.75;;;;;;;;5074815;28;51125;-60
2022/03/01 07:27:33;;;;;;;;;39.00;36.25;;;;;;;;5074776;28;50965;-61
2022/03/01 07:29:58;;;;;;;;;49.50;43.25;;;;;;;;5074798;28;51044;-59
2022/03/01 07:32:24;;;;;;;;;46.50;38.50;;;;;;;;5073393;28;51067;-60
2022/03/01 07:34:49;;;;;;;;;52.25;44.00;;;;;;;;5074737;28;50947;-60
2022/03/01 07:37:15;;;;;;;;;42.25;38.25;;;;;;;;5075020;28;50929;-59
2022/03/01 07:39:40;;;;;;;;;46.00;39.50;;;;;;;;5075121;28;50934;-59
2022/03/01 07:42:06;;;;;;;;;42.75;37.50;;;;;;;;5075373;27;50904;-59
2022/03/01 07:44:34;;;;;;;;;47.50;39.50;;;;;;;;5074295;28;52441;-59
2022/03/01 07:46:59;;;;;;;;;51.50;41.50;;;;;;;;5075022;27;51039;-60
2022/03/01 07:49:24;;;;;;;;;50.50;41.75;;;;;;;;5073619;27;51567;-60
2022/03/01 07:51:49;;;;;;;;;44.00;39.75;;;;;;;;5075142;28;51128;-60
2022/03/01 07:54:15;;;;;;;;;44.00;39.00;;;;;;;;5074263;28;52141;-61
2022/03/01 07:56:40;;;;;;;;;39.75;37.00;;;;;;;;5074713;28;50965;-62
2022/03/01 07:59:06;;;;;;;;;44.00;39.00;;;;;;;;5074473;28;51186;-61
2022/03/01 08:01:31;;;;;;;;;46.75;40.25;;;;;;;;5075220;28;51048;-60
2022/03/01 08:03:56;;;;;;;;;49.25;40.50;;;;;;;;5074213;28;51779;-61
2022/03/01 08:06:22;;;;;;;;;52.25;39.25;;;;;;;;5074611;28;51118;-60
2022/03/01 08:08:47;;;;;;;;;42.00;38.25;;;;;;;;5072511;27;51055;-61
2022/03/01 08:11:12;;;;;;;;;51.75;42.50;;;;;;;;5074845;28;50967;-59
2022/03/01 08:13:37;;;;;;;;;45.25;39.50;;;;;;;;5074000;28;52026;-59
2022/03/01 08:16:04;;;;;;;;;46.00;41.25;;;;;;;;5074741;28;51013;-59
2022/03/01 08:18:29;;;;;;;;;51.25;42.25;;;;;;;;5074155;28;50914;-59
2022/03/01 08:20:54;;;;;;;;;46.75;40.00;;;;;;;;5074534;28;50861;-59
2022/03/01 08:23:20;;;;;;;;;51.50;43.25;;;;;;;;5073615;28;51664;-59
2022/03/01 08:25:45;;;;;;;;;53.50;44.00;;;;;;;;5074643;28;50965;-59
2022/03/01 08:28:11;;;;;;;;;52.25;41.25;;;;;;;;5073653;28;51075;-59
2022/03/01 08:30:37;;;;;;;;;53.25;40.75;;;;;;;;5074451;28;51051;-60
2022/03/01 08:33:02;;;;;;;;;55.50;42.75;;;;;;;;5073677;28;51116;-60
2022/03/01 08:35:28;;;;;;;;;46.00;41.25;;;;;;;;5072564;28;51055;-61
2022/03/01 08:37:54;;;;;;;;;54.25;45.75;;;;;;;;5074377;28;51132;-61
2022/03/01 08:40:21;;;;;;;;;54.75;43.00;;;;;;;;5074430;28;50952;-60
2022/03/01 08:42:46;;;;;;;;;48.50;42.75;;;;;;;;5072474;28;51879;-60
2022/03/01 08:45:12;;;;;;;;;46.50;40.00;;;;;;;;5073703;28;51099;-60
2022/03/01 08:47:38;;;;;;;;;53.00;45.75;;;;;;;;5073792;28;51014;-60
2022/03/01 08:50:03;;;;;;;;;54.50;46.00;;;;;;;;5074466;28;51074;-60
2022/03/01 08:52:28;;;;;;;;;55.50;46.25;;;;;;;;5074037;27;53011;-61
2022/03/01 08:54:54;;;;;;;;;59.00;45.75;;;;;;;;5074109;27;50960;-60
2022/03/01 08:57:19;;;;;;;;;50.00;43.75;;;;;;;;5072644;27;51028;-60
2022/03/01 08:59:44;;;;;;;;;50.75;43.75;;;;;;;;5073736;28;51280;-60
2022/03/01 09:02:10;;;;;;;;;49.00;39.25;;;;;;;;5073522;28;52139;-60
2022/03/01 09:04:35;;;;;;;;;53.50;43.75;;;;;;;;5072885;28;50881;-60
2022/03/01 09:07:03;;;;;;;;;49.25;41.00;;;;;;;;5072028;27;50958;-60
2022/03/01 09:09:29;;;;;;;;;51.75;42.00;;;;;;;;5074195;28;51150;-60
2022/03/01 09:11:54;;;;;;;;;54.00;46.00;;;;;;;;5073480;28;52255;-60
2022/03/01 09:14:19;;;;;;;;;53.25;44.50;;;;;;;;5073154;28;51109;-60
2022/03/01 09:16:44;;;;;;;;;52.50;44.50;;;;;;;;5073421;28;50993;-60
2022/03/01 09:19:10;;;;;;;;;45.00;38.50;;;;;;;;5073795;28;50922;-59
2022/03/01 09:21:36;;;;;;;;;58.25;46.00;;;;;;;;5073001;28;51967;-60
2022/03/01 09:24:01;;;;;;;;;55.75;46.25;;;;;;;;5073203;27;51073;-60
2022/03/01 09:26:26;;;;;;;;;56.25;45.25;;;;;;;;5073270;28;51012;-60
2022/03/01 09:28:52;;;;;;;;;54.00;45.75;;;;;;;;5072107;28;51054;-60
2022/03/01 09:31:17;;;;;;;;;52.50;44.00;;;;;;;;5062589;28;51183;-60
2022/03/01 09:33:43;;;;;;;;;51.75;43.50;;;;;;;;5062459;28;51172;-60
2022/03/01 09:36:12;;;;;;;;;53.25;44.75;;;;;;;;5069100;27;51167;-60
2022/03/01 09:38:38;;;;;;;;;57.25;46.50;;;;;;;;5071199;28;51551;-60
2022/03/01 09:41:03;;;;;;;;;55.00;44.25;;;;;;;;5070976;28;52801;-60
2022/03/01 09:43:29;;;;;;;;;55.00;45.25;;;;;;;;5071515;27;51165;-59
2022/03/01 09:45:54;;;;;;;;;57.25;46.25;;;;;;;;5072802;27;51160;-59
2022/03/01 09:48:19;;;;;;;;;49.00;40.75;;;;;;;;5071034;28;51162;-60
2022/03/01 09:50:45;;;;;;;;;55.00;42.00;;;;;;;;5070577;28;51202;-60
2022/03/01 09:53:10;;;;;;;;;47.75;38.00;;;;;;;;5068932;28;51158;-60
2022/03/01 09:55:36;;;;;;;;;52.25;41.75;;;;;;;;5072025;27;51122;-60
2022/03/01 09:58:01;;;;;;;;;52.00;42.00;;;;;;;;5062798;28;51327;-60
2022/03/01 10:00:26;;;;;;;;;57.50;46.75;;;;;;;;5070579;28;52759;-60
2022/03/01 10:02:56;;;;;;;;;54.00;41.50;;;;;;;;5072308;28;51234;-60
2022/03/01 10:05:34;;;;;;;;;50.50;41.25;;;;;;;;5070290;28;51163;-60
2022/03/01 10:08:05;;;;;;;;;48.75;41.50;;;;;;;;5072140;28;51189;-61
2022/03/01 10:10:36;;;;;;;;;51.00;42.00;;;;;;;;5071562;27;51226;-60
2022/03/01 10:13:01;;;;;;;;;52.25;43.25;;;;;;;;5071402;27;50913;-61
2022/03/01 10:15:28;;;;;;;;;53.50;43.75;;;;;;;;5070575;28;51133;-60
2022/03/01 10:17:53;;;;;;;;;53.50;45.00;;;;;;;;5072430;27;51079;-60
2022/03/01 10:20:19;;;;;;;;;52.00;41.75;;;;;;;;5071553;27;52070;-59
2022/03/01 10:22:44;;;;;;;;;51.00;42.25;;;;;;;;5071001;28;51655;-59
2022/03/01 10:25:10;;;;;;;;;49.75;40.75;;;;;;;;5071694;27;50852;-59
2022/03/01 10:27:36;;;;;;;;;54.00;44.25;;;;;;;;5070948;28;52129;-60
2022/03/01 10:30:03;;;;;;;;;51.00;42.00;;;;;;;;5069754;28;51111;-61
2022/03/01 10:32:28;;;;;;;;;52.00;43.25;;;;;;;;5071150;28;51088;-60
2022/03/01 10:35:01;;;;;;;;;38.25;33.75;;;;;;;;5068336;28;51017;-60
2022/03/01 10:37:29;;;;;;;;;52.75;43.50;;;;;;;;5071981;27;50901;-60
2022/03/01 10:40:08;;;;;;;;;53.00;43.75;;;;;;;;5071459;27;52068;-60
2022/03/01 10:42:34;;;;;;;;;56.25;45.75;;;;;;;;5067390;28;51116;-59
2022/03/01 10:44:59;;;;;;;;;53.50;43.25;;;;;;;;5071137;28;51044;-60
2022/03/01 10:47:24;;;;;;;;;56.25;45.75;;;;;;;;5071266;27;51060;-61
2022/03/01 10:49:59;;;;;;;;;50.75;40.75;;;;;;;;5071299;28;51068;-60
2022/03/01 10:52:30;;;;;;;;;50.50;43.00;;;;;;;;5070799;28;51059;-60
2022/03/01 10:54:56;;;;;;;;;50.25;41.50;;;;;;;;5071200;27;51100;-60
2022/03/01 10:57:22;;;;;;;;;50.50;41.25;;;;;;;;5071041;27;51136;-60
2022/03/01 10:59:48;;;;;;;;;49.00;41.00;;;;;;;;5070356;27;52144;-60
2022/03/01 11:02:16;;;;;;;;;54.25;41.75;;;;;;;;5070180;28;51209;-61
2022/03/01 11:04:41;;;;;;;;;50.50;40.25;;;;;;;;5069697;28;51104;-60
2022/03/01 11:07:08;;;;;;;;;49.50;40.25;;;;;;;;5070640;28;50899;-61
2022/03/01 11:09:34;;;;;;;;;50.00;41.75;;;;;;;;5070752;27;52205;-60
2022/03/01 11:12:00;;;;;;;;;48.00;40.75;;;;;;;;5069388;28;50948;-59
2022/03/01 11:14:42;;;;;;;;;49.75;40.50;;;;;;;;5070515;27;51064;-59
2022/03/01 11:17:18;;;;;;;;;50.75;42.75;;;;;;;;5070571;28;51079;-59
2022/03/01 11:19:52;;;;;;;;;46.50;40.00;;;;;;;;5070665;27;51114;-61
2022/03/01 11:22:20;;;;;;;;;50.25;41.50;;;;;;;;5068778;28;51026;-59
2022/03/01 11:24:47;;;;;;;;;35.25;33.25;;;;;;;;5074444;27;51183;-60
2022/03/01 11:27:17;;;;;;;;;43.25;38.00;;;;;;;;5074937;28;51334;-60
2022/03/01 11:29:43;;;;;;;;;38.75;34.25;;;;;;;;5074557;28;51138;-60
2022/03/01 11:32:15;;;;;;;;;47.25;38.50;;;;;;;;5074478;28;51011;-60
2022/03/01 11:34:41;;;;;;;;;45.50;38.00;;;;;;;;5074365;28;50937;-60
2022/03/01 11:37:12;;;;;;;;;45.50;39.00;;;;;;;;5074504;28;51262;-60
2022/03/01 11:39:37;;;;;;;;;50.25;40.00;;;;;;;;5073079;28;52840;-60
2022/03/01 11:42:17;;;;;;;;;49.50;40.50;;;;;;;;5069984;28;51008;-60
2022/03/01 11:44:47;;;;;;;;;43.75;37.25;;;;;;;;5074078;28;51014;-60
2022/03/01 11:47:24;;;;;;;;;45.75;38.50;;;;;;;;5074295;28;50932;-60
2022/03/01 11:49:49;;;;;;;;;48.00;38.00;;;;;;;;5074215;28;51091;-60
2022/03/01 11:52:18;;;;;;;;;50.00;41.50;;;;;;;;5073983;28;51098;-60
2022/03/01 11:54:43;;;;;;;;;43.00;37.50;;;;;;;;5074146;28;50990;-61
2022/03/01 11:57:10;;;;;;;;;49.25;40.00;;;;;;;;5073634;27;51116;-60
2022/03/01 11:59:38;;;;;;;;;49.50;41.75;;;;;;;;5072322;28;51315;-60
2022/03/01 12:02:06;;;;;;;;;47.50;39.00;;;;;;;;5074402;28;50984;-60
2022/03/01 12:04:31;;;;;;;;;43.75;37.75;;;;;;;;5074393;28;50942;-60
2022/03/01 12:06:57;;;;;;;;;41.75;35.75;;;;;;;;5073858;27;51321;-60
2022/03/01 12:09:23;;;;;;;;;39.25;34.00;;;;;;;;5073463;28;51027;-60
2022/03/01 12:11:49;;;;;;;;;43.75;36.00;;;;;;;;5072225;28;51094;-60
2022/03/01 12:14:19;;;;;;;;;39.25;35.00;;;;;;;;5070186;28;51253;-59
2022/03/01 12:16:44;;;;;;;;;42.50;34.50;;;;;;;;5073886;28;51204;-60
2022/03/01 12:19:20;;;;;;;;;37.75;34.75;;;;;;;;5073376;28;52350;-60
2022/03/01 12:21:50;;;;;;;;;42.25;34.00;;;;;;;;5073764;28;51190;-60
2022/03/01 12:24:16;;;;;;;;;36.50;32.75;;;;;;;;5072112;28;51197;-60
2022/03/01 12:26:43;;;;;;;;;35.00;32.00;;;;;;;;5074244;28;51138;-60
2022/03/01 12:29:09;;;;;;;;;35.00;32.50;;;;;;;;5072872;28;52755;-61
2022/03/01 12:31:34;;;;;;;;;38.50;33.25;;;;;;;;5065956;28;51309;-60
2022/03/01 12:34:02;;;;;;;;;35.50;34.00;;;;;;;;5071529;28;50819;-59
2022/03/01 12:36:40;;;;;;;;;34.50;32.00;;;;;;;;5061582;28;50942;-59
2022/03/01 12:39:12;;;;;;;;;30.75;28.25;;;;;;;;5073250;28;51181;-59
2022/03/01 12:41:40;;;;;;;;;36.50;32.25;;;;;;;;5073541;28;50984;-60
2022/03/01 12:44:06;;;;;;;;;31.00;29.50;;;;;;;;5073080;28;50932;-60
2022/03/01 12:46:32;;;;;;;;;35.50;31.25;;;;;;;;5073945;28;51170;-60
2022/03/01 12:48:58;;;;;;;;;35.25;30.25;;;;;;;;5061298;28;51232;-60
2022/03/01 12:51:24;;;;;;;;;40.25;35.00;;;;;;;;5073632;28;50916;-60
2022/03/01 12:53:53;;;;;;;;;38.25;34.25;;;;;;;;5072890;28;50879;-59
2022/03/01 12:56:23;;;;;;;;;42.00;34.00;;;;;;;;5073160;27;51162;-60
2022/03/01 12:58:49;;;;;;;;;40.00;35.00;;;;;;;;5072574;28;51903;-59
2022/03/01 13:01:14;;;;;;;;;28.50;27.25;;;;;;;;5072974;28;50906;-64
2022/03/01 13:03:40;;;;;;;;;34.75;33.25;;;;;;;;5069891;28;51242;-60
2022/03/01 13:06:08;;;;;;;;;39.00;32.75;;;;;;;;5073291;27;50877;-60
2022/03/01 13:08:34;;;;;;;;;42.75;35.00;;;;;;;;5072914;27;51149;-60
2022/03/01 13:11:00;;;;;;;;;35.25;31.25;;;;;;;;5072896;28;50987;-61
2022/03/01 13:13:25;;;;;;;;;35.00;32.00;;;;;;;;5072705;28;50988;-60
2022/03/01 13:15:50;;;;;;;;;42.50;35.25;;;;;;;;5072990;28;51288;-60
2022/03/01 13:18:24;;;;;;;;;39.00;34.25;;;;;;;;5067689;28;51259;-60
2022/03/01 13:20:49;;;;;;;;;32.75;31.75;;;;;;;;5066147;28;51132;-60
2022/03/01 13:23:16;;;;;;;;;40.50;35.50;;;;;;;;5073338;28;51084;-61
2022/03/01 13:25:42;;;;;;;;;38.50;35.00;;;;;;;;5072990;28;51282;-60
2022/03/01 13:28:07;;;;;;;;;28.75;28.00;;;;;;;;5072256;28;52272;-60
2022/03/01 13:30:33;;;;;;;;;35.25;32.50;;;;;;;;5072740;28;51117;-60
2022/03/01 13:33:05;;;;;;;;;35.75;31.50;;;;;;;;5072900;28;51019;-60
2022/03/01 13:35:30;;;;;;;;;31.50;30.50;;;;;;;;5072359;28;51024;-60
2022/03/01 13:38:02;;;;;;;;;38.00;33.25;;;;;;;;5071761;28;52207;-60
2022/03/01 13:40:29;;;;;;;;;29.25;27.25;;;;;;;;5072157;28;51016;-60
2022/03/01 13:43:10;;;;;;;;;34.50;30.75;;;;;;;;5072201;28;51095;-60
2022/03/01 13:45:36;;;;;;;;;30.00;29.50;;;;;;;;5072458;28;51306;-60
2022/03/01 13:48:15;;;;;;;;;12.75;10.50;;;;;;;;5070962;28;51941;-60
2022/03/01 13:50:42;;;;;;;;;36.00;31.00;;;;;;;;5072568;28;51005;-60
2022/03/01 13:53:17;;;;;;;;;30.25;28.25;;;;;;;;5066419;27;51092;-60
2022/03/01 13:55:44;;;;;;;;;33.00;30.25;;;;;;;;5069530;28;50938;-60
2022/03/01 13:58:13;;;;;;;;;31.50;30.00;;;;;;;;5071620;28;51278;-60
2022/03/01 14:00:42;;;;;;;;;30.50;27.75;;;;;;;;5072092;28;51096;-62
2022/03/01 14:03:11;;;;;;;;;35.50;31.50;;;;;;;;5070335;28;51094;-59
2022/03/01 14:05:39;;;;;;;;;32.00;30.00;;;;;;;;5072000;27;51203;-60
2022/03/01 14:08:04;;;;;;;;;37.25;32.75;;;;;;;;5070339;27;51880;-60
2022/03/01 14:10:31;;;;;;;;;33.00;31.00;;;;;;;;5071853;28;50936;-60